Terminal Aerodrome Forecast
Issued by NWS

Home | Current Version | Previous Version | Text Only | Print | Product List | Glossary On
Versions: 1 2 3 4 5 6 7 8 9 10 11 12 13
000
FTUS42 KTAE 230539 CCA
TAFECP
TAF COR
KECP 230539Z 2306/2406 00000KT P6SM BKN021
      TEMPO 2306/2310 SCT021
     FM231100 25005KT P6SM SCT025
     FM231400 20007KT 6SM -TSRA BKN050CB
     FM232000 20005KT P6SM SCT050 BKN250=

USA.gov is the U.S. government's official web portal to all federal, state and local government web resources and services.